WMT8585 LROP-EGGW
Flight info
| Callsign | WMT8585 |
|---|---|
| Flight time | N/A |
| Altitude | 36000 |
| Route | SOKRU DCT OXDOC DCT ENIMA DCT DEGET DCT ALAMU DCT DITIS DCT OKG DCT VELIS DCT SWALM DCT NOGRO M40 RINIS |
| Aircraft | A321/M-SDE1E2E3FGIJ1J4RWXYZ/LB1G1 |
Departure
| Time | 2026-05-06 10:19 |
|---|---|
| Airport | Bucharest Henri Coandă International Airport (LROP) |
Arrival
| Time | N/A |
|---|---|
| Airport | London Luton Airport (EGGW) |
| Time | Latitude | Longitude | Altitude | Speed | Heading |
|---|---|---|---|---|---|
| 2026-05-06 09:29 | 44.56899 | 26.08983 | 323 ft | 0 kts | 173° |
| 2026-05-06 10:01 | 44.56899 | 26.08982 | 322 ft | 0 kts | 173° |
| 2026-05-06 10:14 | 44.56896 | 26.08983 | 322 ft | 1 kts | 173° |
| 2026-05-06 10:14 | 44.56882 | 26.08985 | 321 ft | 3 kts | 173° |
| 2026-05-06 10:14 | 44.56857 | 26.08972 | 322 ft | 5 kts | 218° |
| 2026-05-06 10:15 | 44.56844 | 26.08917 | 322 ft | 8 kts | 263° |
| 2026-05-06 10:15 | 44.56836 | 26.08829 | 322 ft | 10 kts | 263° |
| 2026-05-06 10:15 | 44.56829 | 26.08731 | 322 ft | 11 kts | 264° |
| 2026-05-06 10:15 | 44.56820 | 26.08624 | 322 ft | 11 kts | 265° |
| 2026-05-06 10:16 | 44.56872 | 26.08558 | 322 ft | 11 kts | 353° |
| 2026-05-06 10:16 | 44.56954 | 26.08545 | 321 ft | 12 kts | 354° |
| 2026-05-06 10:16 | 44.57041 | 26.08533 | 322 ft | 13 kts | 354° |
| 2026-05-06 10:16 | 44.57133 | 26.08520 | 322 ft | 14 kts | 354° |
| 2026-05-06 10:17 | 44.57231 | 26.08506 | 322 ft | 15 kts | 354° |
| 2026-05-06 10:17 | 44.57334 | 26.08490 | 323 ft | 15 kts | 354° |
| 2026-05-06 10:17 | 44.57442 | 26.08475 | 323 ft | 16 kts | 354° |
| 2026-05-06 10:17 | 44.57555 | 26.08458 | 323 ft | 17 kts | 354° |
| 2026-05-06 10:18 | 44.57661 | 26.08455 | 323 ft | 7 kts | 32° |
| 2026-05-06 10:18 | 44.57671 | 26.08541 | 324 ft | 19 kts | 84° |
| 2026-05-06 10:18 | 44.57710 | 26.09087 | 322 ft | 91 kts | 84° |
| 2026-05-06 10:18 | 44.57799 | 26.10258 | 322 ft | 147 kts | 84° |
| 2026-05-06 10:19 | 44.57926 | 26.11878 | 494 ft | 176 kts | 86° |
| 2026-05-06 10:19 | 44.58063 | 26.13576 | 1150 ft | 175 kts | 87° |
| 2026-05-06 10:19 | 44.58191 | 26.15283 | 1702 ft | 180 kts | 88° |
| 2026-05-06 10:19 | 44.58323 | 26.17138 | 1935 ft | 203 kts | 88° |
| 2026-05-06 10:20 | 44.58480 | 26.19206 | 2148 ft | 224 kts | 83° |
| 2026-05-06 10:20 | 44.59167 | 26.21216 | 2468 ft | 247 kts | 44° |
| 2026-05-06 10:20 | 44.60706 | 26.22234 | 3259 ft | 250 kts | 5° |
| 2026-05-06 10:20 | 44.62421 | 26.21785 | 4022 ft | 250 kts | 333° |
| 2026-05-06 10:21 | 44.63810 | 26.20387 | 4839 ft | 249 kts | 311° |
| 2026-05-06 10:21 | 44.64735 | 26.18298 | 5324 ft | 262 kts | 295° |
| 2026-05-06 10:21 | 44.65572 | 26.15997 | 6005 ft | 267 kts | 299° |
| 2026-05-06 10:21 | 44.66490 | 26.13701 | 6722 ft | 271 kts | 301° |
| 2026-05-06 10:22 | 44.67443 | 26.11402 | 7394 ft | 274 kts | 301° |
| 2026-05-06 10:22 | 44.68412 | 26.09079 | 8105 ft | 277 kts | 302° |
| 2026-05-06 10:22 | 44.69386 | 26.06736 | 8824 ft | 280 kts | 302° |
| 2026-05-06 10:22 | 44.70371 | 26.04355 | 9509 ft | 283 kts | 302° |
| 2026-05-06 10:23 | 44.71361 | 26.01946 | 10174 ft | 286 kts | 302° |
| 2026-05-06 10:23 | 44.72383 | 25.99450 | 10458 ft | 305 kts | 302° |
| 2026-05-06 10:23 | 44.73479 | 25.96766 | 10583 ft | 328 kts | 302° |
| 2026-05-06 10:23 | 44.74633 | 25.93928 | 11003 ft | 338 kts | 301° |
| 2026-05-06 10:24 | 44.75804 | 25.91041 | 11614 ft | 342 kts | 301° |
| 2026-05-06 10:24 | 44.76989 | 25.88120 | 12239 ft | 345 kts | 301° |
| 2026-05-06 10:24 | 44.78185 | 25.85168 | 12831 ft | 350 kts | 301° |
| 2026-05-06 10:24 | 44.79397 | 25.82174 | 13427 ft | 354 kts | 301° |
| 2026-05-06 10:25 | 44.80619 | 25.79152 | 14033 ft | 357 kts | 301° |
| 2026-05-06 10:25 | 44.81853 | 25.76099 | 14589 ft | 360 kts | 301° |
| 2026-05-06 10:25 | 44.83099 | 25.73017 | 15135 ft | 364 kts | 301° |
| 2026-05-06 10:25 | 44.84354 | 25.69906 | 15701 ft | 367 kts | 301° |
| 2026-05-06 10:26 | 44.85616 | 25.66769 | 16266 ft | 370 kts | 301° |
| 2026-05-06 10:26 | 44.86891 | 25.63603 | 16826 ft | 373 kts | 301° |
| 2026-05-06 10:26 | 44.88178 | 25.60411 | 17385 ft | 376 kts | 301° |
| 2026-05-06 10:26 | 44.89476 | 25.57186 | 17916 ft | 380 kts | 301° |
| 2026-05-06 10:27 | 44.90782 | 25.53933 | 18434 ft | 383 kts | 301° |
| 2026-05-06 10:27 | 44.92097 | 25.50646 | 18910 ft | 386 kts | 301° |
| 2026-05-06 10:27 | 44.93415 | 25.47337 | 19418 ft | 388 kts | 301° |
| 2026-05-06 10:27 | 44.94740 | 25.44009 | 19934 ft | 390 kts | 301° |
| 2026-05-06 10:28 | 44.96070 | 25.40667 | 20451 ft | 391 kts | 301° |
| 2026-05-06 10:28 | 44.97406 | 25.37310 | 20971 ft | 393 kts | 301° |
| 2026-05-06 10:28 | 44.98750 | 25.33934 | 21496 ft | 395 kts | 301° |
| 2026-05-06 10:28 | 45.00101 | 25.30545 | 22006 ft | 397 kts | 301° |
| 2026-05-06 10:29 | 45.01459 | 25.27134 | 22497 ft | 399 kts | 301° |
| 2026-05-06 10:29 | 45.02825 | 25.23697 | 22945 ft | 402 kts | 301° |
| 2026-05-06 10:29 | 45.04197 | 25.20241 | 23417 ft | 404 kts | 301° |
| 2026-05-06 10:29 | 45.05576 | 25.16763 | 23820 ft | 407 kts | 301° |
| 2026-05-06 10:30 | 45.06961 | 25.13261 | 24176 ft | 409 kts | 301° |
| 2026-05-06 10:30 | 45.08350 | 25.09742 | 24555 ft | 410 kts | 301° |
| 2026-05-06 10:30 | 45.09744 | 25.06208 | 24935 ft | 412 kts | 300° |
| 2026-05-06 10:30 | 45.11141 | 25.02656 | 25305 ft | 414 kts | 300° |
| 2026-05-06 10:31 | 45.12542 | 24.99092 | 25672 ft | 415 kts | 300° |
| 2026-05-06 10:31 | 45.13948 | 24.95509 | 26025 ft | 417 kts | 300° |
| 2026-05-06 10:31 | 45.15356 | 24.91923 | 26446 ft | 417 kts | 300° |
| 2026-05-06 10:31 | 45.16769 | 24.88329 | 26827 ft | 418 kts | 300° |
| 2026-05-06 10:32 | 45.18165 | 24.84773 | 27181 ft | 419 kts | 300° |
| 2026-05-06 10:32 | 45.19584 | 24.81154 | 27529 ft | 421 kts | 300° |
| 2026-05-06 10:32 | 45.21005 | 24.77519 | 27870 ft | 422 kts | 300° |
| 2026-05-06 10:32 | 45.22429 | 24.73867 | 28190 ft | 424 kts | 300° |
| 2026-05-06 10:33 | 45.23857 | 24.70194 | 28533 ft | 426 kts | 300° |
| 2026-05-06 10:33 | 45.25288 | 24.66507 | 28856 ft | 428 kts | 300° |
| 2026-05-06 10:33 | 45.26724 | 24.62801 | 29156 ft | 429 kts | 299° |
| 2026-05-06 10:33 | 45.28161 | 24.59086 | 29487 ft | 430 kts | 300° |
| 2026-05-06 10:34 | 45.29605 | 24.55354 | 29803 ft | 432 kts | 300° |
| 2026-05-06 10:34 | 45.31052 | 24.51605 | 30105 ft | 434 kts | 299° |
| 2026-05-06 10:34 | 45.32505 | 24.47840 | 30368 ft | 436 kts | 300° |
| 2026-05-06 10:34 | 45.33964 | 24.44058 | 30633 ft | 437 kts | 300° |
| 2026-05-06 10:35 | 45.35425 | 24.40263 | 30945 ft | 438 kts | 300° |
| 2026-05-06 10:35 | 45.36880 | 24.36471 | 31329 ft | 436 kts | 300° |
| 2026-05-06 10:35 | 45.38327 | 24.32691 | 31719 ft | 434 kts | 299° |
| 2026-05-06 10:35 | 45.39768 | 24.28933 | 32142 ft | 431 kts | 300° |
| 2026-05-06 10:36 | 45.41199 | 24.25197 | 32570 ft | 428 kts | 300° |
| 2026-05-06 10:36 | 45.42623 | 24.21482 | 32954 ft | 427 kts | 300° |
| 2026-05-06 10:36 | 45.44039 | 24.17778 | 33334 ft | 425 kts | 300° |
| 2026-05-06 10:36 | 45.45447 | 24.14088 | 33705 ft | 423 kts | 300° |
| 2026-05-06 10:37 | 45.46846 | 24.10411 | 34067 ft | 422 kts | 300° |
| 2026-05-06 10:37 | 45.48241 | 24.06743 | 34343 ft | 420 kts | 300° |
| 2026-05-06 10:37 | 45.49633 | 24.03080 | 34606 ft | 420 kts | 300° |
| 2026-05-06 10:37 | 45.51021 | 23.99424 | 34894 ft | 419 kts | 300° |
| 2026-05-06 10:38 | 45.52403 | 23.95776 | 35194 ft | 418 kts | 299° |
| 2026-05-06 10:38 | 45.53782 | 23.92130 | 35472 ft | 417 kts | 299° |
| 2026-05-06 10:38 | 45.55160 | 23.88489 | 35729 ft | 417 kts | 299° |
| 2026-05-06 10:38 | 45.56538 | 23.84844 | 35954 ft | 418 kts | 299° |
| 2026-05-06 10:39 | 45.59295 | 23.77535 | 36027 ft | 418 kts | 299° |
| 2026-05-06 10:39 | 45.62048 | 23.70212 | 36027 ft | 418 kts | 299° |
| 2026-05-06 10:40 | 45.64769 | 23.62930 | 36012 ft | 418 kts | 299° |
| 2026-05-06 10:40 | 45.67505 | 23.55589 | 36011 ft | 418 kts | 299° |
| 2026-05-06 10:41 | 45.70245 | 23.48249 | 36010 ft | 418 kts | 299° |
| 2026-05-06 10:41 | 45.72987 | 23.40899 | 36013 ft | 419 kts | 299° |
| 2026-05-06 10:42 | 45.75719 | 23.33531 | 36001 ft | 419 kts | 298° |
| 2026-05-06 10:42 | 45.78435 | 23.26153 | 36007 ft | 419 kts | 298° |
| 2026-05-06 10:43 | 45.81144 | 23.18770 | 36010 ft | 418 kts | 298° |
| 2026-05-06 10:44 | 45.85223 | 23.07702 | 36018 ft | 419 kts | 298° |
| 2026-05-06 10:44 | 45.87931 | 23.00303 | 36010 ft | 419 kts | 298° |
| 2026-05-06 10:45 | 45.90636 | 22.92898 | 36019 ft | 419 kts | 298° |
| 2026-05-06 10:45 | 45.93334 | 22.85487 | 36020 ft | 419 kts | 298° |
| 2026-05-06 10:46 | 45.96025 | 22.78071 | 36023 ft | 419 kts | 298° |
| 2026-05-06 10:46 | 45.98709 | 22.70644 | 36016 ft | 418 kts | 297° |
| 2026-05-06 10:47 | 46.01386 | 22.63226 | 36025 ft | 418 kts | 297° |
| 2026-05-06 10:47 | 46.03608 | 22.57068 | 36026 ft | 417 kts | 297° |
| 2026-05-06 10:48 | 46.06274 | 22.49649 | 36033 ft | 417 kts | 297° |
| 2026-05-06 10:48 | 46.08933 | 22.42237 | 36030 ft | 416 kts | 297° |
| 2026-05-06 10:49 | 46.11585 | 22.34820 | 36032 ft | 416 kts | 296° |
| 2026-05-06 10:49 | 46.14227 | 22.27403 | 36034 ft | 416 kts | 296° |
| 2026-05-06 10:50 | 46.16863 | 22.19976 | 36031 ft | 416 kts | 296° |
| 2026-05-06 10:50 | 46.19487 | 22.12545 | 36029 ft | 416 kts | 296° |
| 2026-05-06 10:51 | 46.22111 | 22.05116 | 36022 ft | 415 kts | 296° |
| 2026-05-06 10:51 | 46.24738 | 21.97681 | 36021 ft | 415 kts | 296° |
| 2026-05-06 10:52 | 46.27357 | 21.90240 | 36027 ft | 415 kts | 296° |
| 2026-05-06 10:52 | 46.29964 | 21.82788 | 36024 ft | 415 kts | 296° |
| 2026-05-06 10:53 | 46.32567 | 21.75331 | 36023 ft | 415 kts | 296° |
| 2026-05-06 10:53 | 46.35167 | 21.67862 | 36024 ft | 416 kts | 295° |
| 2026-05-06 10:54 | 46.37769 | 21.60379 | 36017 ft | 416 kts | 295° |
| 2026-05-06 10:54 | 46.40362 | 21.52881 | 36016 ft | 417 kts | 295° |
| 2026-05-06 10:55 | 46.42939 | 21.45420 | 36013 ft | 417 kts | 295° |
| 2026-05-06 10:55 | 46.45528 | 21.37899 | 36013 ft | 417 kts | 295° |
| 2026-05-06 10:56 | 46.48118 | 21.30373 | 36015 ft | 417 kts | 295° |
| 2026-05-06 10:56 | 46.50992 | 21.23067 | 36005 ft | 418 kts | 301° |
| 2026-05-06 10:57 | 46.54154 | 21.15980 | 36005 ft | 418 kts | 301° |
| 2026-05-06 10:57 | 46.57310 | 21.08884 | 35995 ft | 418 kts | 301° |
| 2026-05-06 10:58 | 46.60457 | 21.01770 | 35998 ft | 418 kts | 300° |
| 2026-05-06 10:58 | 46.63604 | 20.94644 | 35986 ft | 419 kts | 300° |
| 2026-05-06 10:59 | 46.66748 | 20.87510 | 35986 ft | 419 kts | 300° |
| 2026-05-06 10:59 | 46.69889 | 20.80356 | 35977 ft | 419 kts | 300° |
| 2026-05-06 11:00 | 46.73007 | 20.73249 | 35980 ft | 419 kts | 300° |
| 2026-05-06 11:00 | 46.76168 | 20.66038 | 35994 ft | 419 kts | 299° |
| 2026-05-06 11:01 | 46.79287 | 20.58858 | 35988 ft | 419 kts | 298° |
| 2026-05-06 11:01 | 46.82391 | 20.51723 | 35982 ft | 419 kts | 299° |
| 2026-05-06 11:02 | 46.85510 | 20.44542 | 35969 ft | 419 kts | 298° |
| 2026-05-06 11:02 | 46.88623 | 20.37347 | 35969 ft | 419 kts | 298° |
| 2026-05-06 11:03 | 46.91733 | 20.30146 | 35959 ft | 419 kts | 298° |
| 2026-05-06 11:03 | 46.94832 | 20.22931 | 35960 ft | 419 kts | 298° |
| 2026-05-06 11:04 | 46.97929 | 20.15711 | 35970 ft | 419 kts | 298° |
| 2026-05-06 11:04 | 47.01024 | 20.08486 | 35974 ft | 419 kts | 298° |
| 2026-05-06 11:05 | 47.04116 | 20.01253 | 35978 ft | 419 kts | 298° |
| 2026-05-06 11:05 | 47.07204 | 19.93998 | 35974 ft | 419 kts | 298° |
| 2026-05-06 11:06 | 47.10290 | 19.86735 | 35973 ft | 420 kts | 298° |
| 2026-05-06 11:06 | 47.13375 | 19.79463 | 35957 ft | 420 kts | 298° |
| 2026-05-06 11:07 | 47.16456 | 19.72176 | 35969 ft | 420 kts | 297° |
| 2026-05-06 11:07 | 47.19530 | 19.64870 | 35961 ft | 420 kts | 297° |
| 2026-05-06 11:08 | 47.22599 | 19.57559 | 35955 ft | 420 kts | 297° |
| 2026-05-06 11:08 | 47.25670 | 19.50240 | 35958 ft | 421 kts | 297° |
| 2026-05-06 11:09 | 47.28740 | 19.42903 | 35958 ft | 421 kts | 297° |
| 2026-05-06 11:09 | 47.31801 | 19.35555 | 35970 ft | 421 kts | 297° |
| 2026-05-06 11:10 | 47.34856 | 19.28190 | 35967 ft | 421 kts | 297° |
| 2026-05-06 11:10 | 47.37912 | 19.20818 | 35964 ft | 421 kts | 297° |
| 2026-05-06 11:11 | 47.40969 | 19.13436 | 35964 ft | 421 kts | 297° |
| 2026-05-06 11:11 | 47.44025 | 19.06040 | 35967 ft | 421 kts | 297° |
| 2026-05-06 11:12 | 47.47047 | 18.98698 | 35963 ft | 421 kts | 297° |
| 2026-05-06 11:12 | 47.50081 | 18.91287 | 35965 ft | 421 kts | 297° |
| 2026-05-06 11:13 | 47.53111 | 18.83865 | 35952 ft | 422 kts | 297° |
| 2026-05-06 11:13 | 47.56148 | 18.76428 | 35940 ft | 422 kts | 297° |
| 2026-05-06 11:14 | 47.59183 | 18.68968 | 35939 ft | 423 kts | 297° |
| 2026-05-06 11:14 | 47.62220 | 18.61497 | 35937 ft | 423 kts | 297° |
| 2026-05-06 11:15 | 47.65249 | 18.54024 | 35931 ft | 423 kts | 297° |
| 2026-05-06 11:15 | 47.68273 | 18.46535 | 35932 ft | 423 kts | 297° |
| 2026-05-06 11:16 | 47.71289 | 18.39039 | 35924 ft | 423 kts | 297° |
| 2026-05-06 11:16 | 47.74292 | 18.31528 | 35938 ft | 423 kts | 296° |
| 2026-05-06 11:17 | 47.77211 | 18.23953 | 35926 ft | 422 kts | 295° |
| 2026-05-06 11:17 | 47.80088 | 18.16340 | 35922 ft | 422 kts | 295° |
| 2026-05-06 11:18 | 47.82969 | 18.08720 | 35919 ft | 422 kts | 295° |
| 2026-05-06 11:18 | 47.85861 | 18.01108 | 35930 ft | 423 kts | 295° |
| 2026-05-06 11:19 | 47.88755 | 17.93488 | 35930 ft | 422 kts | 295° |
| 2026-05-06 11:19 | 47.91635 | 17.85864 | 35919 ft | 422 kts | 295° |
| 2026-05-06 11:20 | 47.94512 | 17.78220 | 35906 ft | 423 kts | 295° |
| 2026-05-06 11:20 | 47.97385 | 17.70568 | 35900 ft | 423 kts | 295° |
| 2026-05-06 11:21 | 48.00253 | 17.62905 | 35913 ft | 423 kts | 295° |
| 2026-05-06 11:21 | 48.03121 | 17.55234 | 35897 ft | 423 kts | 295° |
| 2026-05-06 11:22 | 48.05958 | 17.47601 | 35891 ft | 423 kts | 295° |
| 2026-05-06 11:22 | 48.08811 | 17.39910 | 35885 ft | 423 kts | 294° |
| 2026-05-06 11:23 | 48.11659 | 17.32216 | 35884 ft | 423 kts | 294° |
| 2026-05-06 11:23 | 48.14506 | 17.24517 | 35894 ft | 423 kts | 294° |
| 2026-05-06 11:24 | 48.17341 | 17.16810 | 35891 ft | 422 kts | 294° |
| 2026-05-06 11:24 | 48.20169 | 17.09095 | 35888 ft | 422 kts | 294° |
| 2026-05-06 11:25 | 48.22991 | 17.01375 | 35882 ft | 422 kts | 294° |
| 2026-05-06 11:25 | 48.25808 | 16.93649 | 35872 ft | 422 kts | 294° |
| 2026-05-06 11:26 | 48.28620 | 16.85913 | 35873 ft | 422 kts | 294° |
| 2026-05-06 11:26 | 48.31426 | 16.78168 | 35864 ft | 422 kts | 294° |
| 2026-05-06 11:27 | 48.34233 | 16.70411 | 35859 ft | 423 kts | 294° |
| 2026-05-06 11:27 | 48.37031 | 16.62638 | 35861 ft | 423 kts | 294° |
| 2026-05-06 11:28 | 48.39823 | 16.54859 | 35869 ft | 423 kts | 293° |
| 2026-05-06 11:28 | 48.42617 | 16.47072 | 35863 ft | 423 kts | 293° |
| 2026-05-06 11:29 | 48.45399 | 16.39271 | 35854 ft | 423 kts | 293° |
| 2026-05-06 11:29 | 48.48174 | 16.31456 | 35853 ft | 423 kts | 293° |
| 2026-05-06 11:30 | 48.50952 | 16.23643 | 35847 ft | 423 kts | 293° |
| 2026-05-06 11:30 | 48.53730 | 16.15819 | 35863 ft | 423 kts | 292° |
| 2026-05-06 11:31 | 48.56498 | 16.07973 | 35845 ft | 424 kts | 292° |
| 2026-05-06 11:31 | 48.59264 | 16.00106 | 35847 ft | 424 kts | 292° |
| 2026-05-06 11:32 | 48.62029 | 15.92222 | 35840 ft | 425 kts | 292° |
| 2026-05-06 11:32 | 48.64787 | 15.84329 | 35839 ft | 425 kts | 292° |